Time;durP1;ratioP1;P1;durP2;ratioP2;P2;SDS_P1;SDS_P2;PMS_P1;PMS_P2;Temp;Humidity;BMP_temperature;BMP_pressure;BME280_temperature;BME280_humidity;BME280_pressure;Samples;Min_cycle;Max_cycle;Signal;HPM_P1;HPM_P2
2021/07/30 00:00:41;;;;;;;0.80;0.80;;;24.70;59.80;;;;;;5028945;28;20500;-46
2021/07/30 00:03:07;;;;;;;0.80;0.80;;;24.70;59.70;;;;;;5028748;28;20030;-48
2021/07/30 00:05:32;;;;;;;0.80;0.80;;;24.70;59.80;;;;;;5031705;28;20045;-45
2021/07/30 00:07:58;;;;;;;0.75;0.75;;;24.70;59.70;;;;;;5028108;28;20021;-46
2021/07/30 00:10:24;;;;;;;1.08;0.77;;;24.70;59.80;;;;;;5027312;28;20030;-46
2021/07/30 00:12:55;;;;;;;0.80;0.80;;;24.70;59.80;;;;;;5028517;28;20021;-45
2021/07/30 00:15:21;;;;;;;0.70;0.70;;;24.70;59.80;;;;;;5027033;28;20061;-41
2021/07/30 00:17:46;;;;;;;0.60;0.60;;;24.60;59.90;;;;;;5030048;28;20100;-40
2021/07/30 00:20:12;;;;;;;0.73;0.73;;;24.70;59.90;;;;;;5023218;28;20113;-42
2021/07/30 00:22:38;;;;;;;0.85;0.70;;;24.70;59.90;;;;;;5006024;28;20040;-41
2021/07/30 00:25:04;;;;;;;0.80;0.80;;;24.70;60.00;;;;;;5028497;28;20051;-42
2021/07/30 00:27:30;;;;;;;0.50;0.50;;;24.70;59.90;;;;;;5027666;28;20073;-40
2021/07/30 00:29:55;;;;;;;0.70;0.70;;;24.70;59.90;;;;;;5028671;28;20449;-41
2021/07/30 00:32:21;;;;;;;0.70;0.70;;;24.70;59.80;;;;;;5029645;28;20036;-41
2021/07/30 00:34:46;;;;;;;0.90;0.90;;;24.70;59.80;;;;;;5026856;28;20038;-42
2021/07/30 00:37:12;;;;;;;0.85;0.70;;;24.60;59.90;;;;;;5028855;28;20060;-41
2021/07/30 00:39:37;;;;;;;0.70;0.70;;;24.70;60.00;;;;;;5028069;28;20040;-41
2021/07/30 00:42:03;;;;;;;1.02;0.60;;;24.70;60.00;;;;;;5028377;28;20026;-42
2021/07/30 00:44:29;;;;;;;0.88;0.80;;;24.70;59.90;;;;;;5030520;28;20022;-41
2021/07/30 00:46:56;;;;;;;0.68;0.68;;;24.60;59.90;;;;;;5027988;28;20492;-41
2021/07/30 00:49:22;;;;;;;0.80;0.80;;;24.70;60.00;;;;;;5027008;28;20487;-41
2021/07/30 00:51:47;;;;;;;0.70;0.70;;;24.70;59.90;;;;;;5009134;28;20035;-40
2021/07/30 00:54:13;;;;;;;0.82;0.82;;;24.60;59.90;;;;;;5011231;28;20574;-41
2021/07/30 00:56:38;;;;;;;0.73;0.73;;;24.60;60.00;;;;;;5014148;28;20018;-41
2021/07/30 00:59:05;;;;;;;0.85;0.85;;;24.60;60.00;;;;;;5021218;28;20037;-40
2021/07/30 01:01:30;;;;;;;0.70;0.70;;;24.60;60.10;;;;;;4988561;28;20387;-41
2021/07/30 01:03:56;;;;;;;0.77;0.77;;;24.60;60.10;;;;;;5030074;28;20034;-40
2021/07/30 01:06:22;;;;;;;0.55;0.55;;;24.60;60.10;;;;;;5026812;28;20599;-40
2021/07/30 01:08:47;;;;;;;0.43;0.43;;;24.60;60.10;;;;;;5011845;28;20041;-40
2021/07/30 01:11:13;;;;;;;0.60;0.60;;;24.60;60.20;;;;;;5025277;28;20040;-40
2021/07/30 01:13:39;;;;;;;0.52;0.52;;;24.60;60.20;;;;;;5027867;28;20033;-44
2021/07/30 01:16:04;;;;;;;1.38;0.65;;;24.60;61.00;;;;;;5027073;28;20522;-40
2021/07/30 01:18:30;;;;;;;1.02;0.82;;;24.50;60.10;;;;;;5027325;28;20038;-40
2021/07/30 01:21:08;;;;;;;0.70;0.70;;;24.50;60.10;;;;;;5028006;28;20644;-38
2021/07/30 01:23:34;;;;;;;0.55;0.55;;;24.60;60.10;;;;;;5030834;28;20510;-39
2021/07/30 01:25:59;;;;;;;0.77;0.77;;;24.50;60.10;;;;;;5026540;28;20047;-40
2021/07/30 01:28:31;;;;;;;0.50;0.50;;;24.60;60.20;;;;;;5026722;28;20109;-40
2021/07/30 01:30:58;;;;;;;0.90;0.55;;;24.60;60.20;;;;;;5026901;28;20052;-39
2021/07/30 01:33:23;;;;;;;0.50;0.50;;;24.60;60.30;;;;;;5027543;28;20017;-39
2021/07/30 01:35:49;;;;;;;0.50;0.50;;;24.50;60.10;;;;;;5029044;28;20043;-40
2021/07/30 01:38:14;;;;;;;0.65;0.65;;;24.60;60.20;;;;;;5024875;28;20105;-39
2021/07/30 01:40:40;;;;;;;0.98;0.80;;;24.60;60.10;;;;;;5027446;28;20495;-40
2021/07/30 01:43:05;;;;;;;0.90;0.90;;;24.50;60.40;;;;;;5027884;28;20443;-39
2021/07/30 01:45:31;;;;;;;0.77;0.70;;;24.50;60.40;;;;;;5028691;28;20053;-38
2021/07/30 01:47:56;;;;;;;0.82;0.82;;;24.50;60.40;;;;;;5037135;28;20029;-41
2021/07/30 01:50:22;;;;;;;0.75;0.75;;;24.50;60.20;;;;;;5034274;28;20128;-40
2021/07/30 01:52:48;;;;;;;0.60;0.60;;;24.50;60.10;;;;;;5029091;28;20030;-40
2021/07/30 01:55:13;;;;;;;0.50;0.50;;;24.50;60.30;;;;;;5031260;28;20480;-39
2021/07/30 01:57:39;;;;;;;0.45;0.45;;;24.50;60.40;;;;;;5030899;28;20475;-40
2021/07/30 02:00:05;;;;;;;0.60;0.60;;;24.50;60.40;;;;;;5002924;28;20113;-39
2021/07/30 02:02:33;;;;;;;0.70;0.70;;;24.50;60.30;;;;;;5031429;28;20515;-40
2021/07/30 02:05:00;;;;;;;0.50;0.50;;;24.50;60.30;;;;;;5028356;28;20049;-39
2021/07/30 02:07:26;;;;;;;0.68;0.68;;;24.50;60.20;;;;;;5030266;28;20108;-40
2021/07/30 02:09:51;;;;;;;0.50;0.50;;;24.40;61.20;;;;;;5029713;28;20176;-40
2021/07/30 02:12:17;;;;;;;0.60;0.60;;;24.50;60.30;;;;;;5029652;28;20504;-40
2021/07/30 02:14:42;;;;;;;0.50;0.50;;;24.50;60.30;;;;;;5033350;28;20018;-38
2021/07/30 02:17:08;;;;;;;0.60;0.60;;;24.50;60.30;;;;;;5024270;28;20412;-40
2021/07/30 02:19:34;;;;;;;0.57;0.57;;;24.40;60.30;;;;;;5025843;28;20036;-40
2021/07/30 02:21:59;;;;;;;0.70;0.70;;;24.40;60.40;;;;;;5030476;28;20029;-37
2021/07/30 02:24:25;;;;;;;0.63;0.63;;;24.50;60.40;;;;;;5029675;28;20026;-41
2021/07/30 02:26:52;;;;;;;0.75;0.75;;;24.40;60.30;;;;;;5031870;28;20034;-40
2021/07/30 02:29:18;;;;;;;0.82;0.82;;;24.50;60.30;;;;;;5031115;28;20522;-39
2021/07/30 02:31:43;;;;;;;0.60;0.60;;;24.50;60.30;;;;;;5028938;28;20036;-39
2021/07/30 02:34:09;;;;;;;0.57;0.57;;;24.40;61.10;;;;;;5029484;28;20495;-38
2021/07/30 02:36:35;;;;;;;1.00;0.70;;;24.40;60.20;;;;;;5030088;28;20033;-39
2021/07/30 02:39:01;;;;;;;0.70;0.70;;;24.40;60.20;;;;;;5030931;28;20025;-39
2021/07/30 02:41:26;;;;;;;0.60;0.60;;;24.40;60.30;;;;;;5032257;28;20033;-40
2021/07/30 02:43:52;;;;;;;0.65;0.65;;;24.40;60.50;;;;;;5030130;28;20025;-39
2021/07/30 02:46:18;;;;;;;0.70;0.70;;;24.40;60.50;;;;;;5029625;28;20090;-38
2021/07/30 02:48:44;;;;;;;0.70;0.70;;;24.40;60.30;;;;;;5027874;28;20018;-40
2021/07/30 02:51:10;;;;;;;0.60;0.60;;;24.40;60.40;;;;;;5012817;28;20052;-39
2021/07/30 02:53:36;;;;;;;0.45;0.45;;;24.40;60.40;;;;;;5033414;28;20482;-40
2021/07/30 02:56:01;;;;;;;0.45;0.45;;;24.40;60.40;;;;;;5027740;28;20029;-40
2021/07/30 02:58:27;;;;;;;0.73;0.52;;;24.40;60.40;;;;;;5024198;28;20037;-39
2021/07/30 03:00:52;;;;;;;0.50;0.50;;;24.40;60.50;;;;;;5028826;28;20024;-38
2021/07/30 03:03:18;;;;;;;0.65;0.65;;;24.40;60.40;;;;;;5011753;28;20112;-39
2021/07/30 03:05:45;;;;;;;0.90;0.65;;;24.40;60.30;;;;;;5031937;28;20048;-40
2021/07/30 03:08:11;;;;;;;0.60;0.60;;;24.40;60.40;;;;;;5029842;28;20025;-38
2021/07/30 03:10:36;;;;;;;0.70;0.70;;;24.40;60.50;;;;;;5028641;28;20403;-39
2021/07/30 03:13:02;;;;;;;0.63;0.63;;;24.40;60.70;;;;;;5029509;28;20026;-41
2021/07/30 03:15:27;;;;;;;0.60;0.60;;;24.40;60.70;;;;;;5029561;28;20120;-41
2021/07/30 03:17:53;;;;;;;0.75;0.75;;;24.40;60.50;;;;;;5029638;28;20037;-40
2021/07/30 03:20:19;;;;;;;0.80;0.80;;;24.40;60.70;;;;;;5032320;28;20029;-39
2021/07/30 03:22:44;;;;;;;0.70;0.70;;;24.40;60.60;;;;;;5029185;28;20523;-39
2021/07/30 03:25:10;;;;;;;0.80;0.80;;;24.40;61.40;;;;;;5028922;28;20550;-39
2021/07/30 03:27:36;;;;;;;0.70;0.70;;;24.30;60.70;;;;;;5028650;28;20025;-40
2021/07/30 03:30:01;;;;;;;0.63;0.63;;;24.30;60.60;;;;;;5029230;28;20033;-40
2021/07/30 03:32:27;;;;;;;0.90;0.90;;;24.30;60.70;;;;;;5032916;28;20061;-40
2021/07/30 03:34:52;;;;;;;0.77;0.77;;;24.30;61.40;;;;;;5029142;28;20041;-39
2021/07/30 03:37:18;;;;;;;0.70;0.70;;;24.30;60.70;;;;;;5025847;28;20452;-43
2021/07/30 03:39:43;;;;;;;0.70;0.70;;;24.30;60.70;;;;;;5027117;28;20021;-39
2021/07/30 03:42:09;;;;;;;0.60;0.60;;;24.40;60.60;;;;;;5029188;28;20042;-40
2021/07/30 03:44:35;;;;;;;0.63;0.63;;;24.40;60.70;;;;;;5032427;28;20025;-39
2021/07/30 03:47:01;;;;;;;0.55;0.55;;;24.40;60.60;;;;;;5026929;28;20033;-40
2021/07/30 03:49:26;;;;;;;4.43;0.70;;;24.30;61.50;;;;;;5029522;28;20030;-39
2021/07/30 03:51:52;;;;;;;0.50;0.50;;;24.30;60.70;;;;;;5028871;28;20079;-39
2021/07/30 03:54:18;;;;;;;0.47;0.47;;;24.30;60.80;;;;;;5026974;28;20100;-38
2021/07/30 03:56:44;;;;;;;0.70;0.70;;;24.30;60.80;;;;;;5018974;28;20037;-40
2021/07/30 03:59:09;;;;;;;0.52;0.50;;;24.30;60.90;;;;;;5029583;28;20083;-39
2021/07/30 04:01:35;;;;;;;0.60;0.60;;;24.30;60.90;;;;;;5029043;28;20057;-40
2021/07/30 04:04:01;;;;;;;0.40;0.40;;;24.30;61.20;;;;;;5028601;28;20029;-40
2021/07/30 04:06:26;;;;;;;0.40;0.40;;;24.30;61.00;;;;;;5027678;28;20037;-40
2021/07/30 04:08:52;;;;;;;0.60;0.60;;;24.30;61.50;;;;;;5014007;28;20030;-38
2021/07/30 04:11:18;;;;;;;0.60;0.60;;;24.30;62.30;;;;;;5031133;28;20057;-39
2021/07/30 04:13:46;;;;;;;0.50;0.50;;;24.30;61.20;;;;;;5028338;28;20025;-39
2021/07/30 04:16:11;;;;;;;0.52;0.52;;;24.30;61.30;;;;;;5029039;28;20045;-38
2021/07/30 04:18:37;;;;;;;0.60;0.60;;;24.30;61.20;;;;;;5027626;28;20022;-39
2021/07/30 04:21:06;;;;;;;0.90;0.50;;;24.30;61.20;;;;;;5027745;28;22622;-39
2021/07/30 04:23:32;;;;;;;0.70;0.70;;;24.30;61.00;;;;;;5031039;28;20017;-40
2021/07/30 04:25:58;;;;;;;0.68;0.68;;;24.30;60.90;;;;;;5010867;28;20045;-39
2021/07/30 04:28:23;;;;;;;0.60;0.60;;;24.30;60.90;;;;;;5028902;28;20014;-39
2021/07/30 04:30:49;;;;;;;1.15;0.80;;;24.30;60.90;;;;;;5010051;28;20032;-38
2021/07/30 04:33:14;;;;;;;1.00;0.90;;;24.30;60.90;;;;;;5026538;28;20026;-40
2021/07/30 04:35:40;;;;;;;0.60;0.60;;;24.30;60.70;;;;;;5028157;28;20018;-40
2021/07/30 04:38:05;;;;;;;0.82;0.82;;;24.30;61.70;;;;;;5027894;28;20033;-41
2021/07/30 04:40:31;;;;;;;0.88;0.65;;;24.30;61.70;;;;;;5028006;28;20450;-40
2021/07/30 04:42:57;;;;;;;0.80;0.80;;;24.30;61.60;;;;;;5027145;28;20029;-40
2021/07/30 04:45:23;;;;;;;0.60;0.60;;;24.30;60.70;;;;;;5028090;28;20410;-40
2021/07/30 04:47:49;;;;;;;0.70;0.70;;;24.30;60.70;;;;;;5030243;28;20113;-39
2021/07/30 04:50:14;;;;;;;0.60;0.60;;;24.30;61.50;;;;;;5030172;28;20411;-39
2021/07/30 04:52:40;;;;;;;0.60;0.60;;;24.30;60.70;;;;;;5028237;28;20021;-39
2021/07/30 04:55:06;;;;;;;0.68;0.68;;;24.30;60.60;;;;;;5027879;28;20121;-40
2021/07/30 04:57:32;;;;;;;0.63;0.63;;;24.30;60.70;;;;;;5028254;28;20029;-40
2021/07/30 04:59:57;;;;;;;1.50;0.70;;;24.30;60.70;;;;;;5028147;28;20022;-40
2021/07/30 05:02:23;;;;;;;0.80;0.80;;;24.30;60.60;;;;;;5031619;28;20048;-39
2021/07/30 05:04:48;;;;;;;1.27;0.80;;;24.30;60.60;;;;;;5026728;28;20048;-39
2021/07/30 05:07:14;;;;;;;0.80;0.80;;;24.30;60.50;;;;;;5027772;28;20119;-39
2021/07/30 05:09:39;;;;;;;0.70;0.70;;;24.30;60.50;;;;;;5026687;28;20053;-40
2021/07/30 05:12:05;;;;;;;0.77;0.77;;;24.30;60.50;;;;;;5026987;28;20049;-40
2021/07/30 05:14:31;;;;;;;1.00;0.80;;;24.30;60.40;;;;;;5023252;28;20026;-41
2021/07/30 05:16:56;;;;;;;0.60;0.60;;;24.30;60.40;;;;;;5017166;28;20018;-41
2021/07/30 05:19:22;;;;;;;0.60;0.60;;;24.30;60.20;;;;;;5022254;28;20468;-40
2021/07/30 05:21:47;;;;;;;0.57;0.57;;;24.30;60.20;;;;;;5024381;28;20033;-43
2021/07/30 05:24:13;;;;;;;0.55;0.55;;;24.30;60.30;;;;;;5026128;28;20388;-41
2021/07/30 05:26:39;;;;;;;0.60;0.60;;;24.30;60.50;;;;;;5028742;28;20120;-40
2021/07/30 05:29:07;;;;;;;0.60;0.60;;;24.20;60.30;;;;;;5027724;28;20021;-44
2021/07/30 05:31:33;;;;;;;0.50;0.50;;;24.20;60.40;;;;;;5026242;28;20060;-41
2021/07/30 05:33:58;;;;;;;0.90;0.70;;;24.20;60.40;;;;;;5021161;28;20110;-40
2021/07/30 05:36:24;;;;;;;0.70;0.70;;;24.20;60.40;;;;;;5026420;28;20410;-41
2021/07/30 05:38:49;;;;;;;0.70;0.70;;;24.20;60.40;;;;;;5023029;28;20026;-41
2021/07/30 05:41:16;;;;;;;0.88;0.88;;;24.20;60.40;;;;;;5003531;28;20022;-40
2021/07/30 05:43:42;;;;;;;0.57;0.57;;;24.20;60.30;;;;;;5008220;28;20551;-39
2021/07/30 05:46:08;;;;;;;0.80;0.80;;;24.20;60.50;;;;;;5024574;28;20044;-40
2021/07/30 05:48:33;;;;;;;0.55;0.55;;;24.20;60.30;;;;;;5024599;28;20033;-40
2021/07/30 05:50:59;;;;;;;1.98;0.73;;;24.20;60.40;;;;;;5028519;28;20030;-39
2021/07/30 05:53:24;;;;;;;0.68;0.68;;;24.20;60.40;;;;;;5027021;28;20030;-40
2021/07/30 05:55:50;;;;;;;0.65;0.65;;;24.20;60.60;;;;;;5027707;28;20532;-38
2021/07/30 05:58:15;;;;;;;0.55;0.55;;;24.20;60.50;;;;;;5027335;28;20052;-40
2021/07/30 06:00:41;;;;;;;0.52;0.52;;;24.20;60.40;;;;;;5021843;28;20038;-43
2021/07/30 06:03:07;;;;;;;0.70;0.70;;;24.20;60.50;;;;;;5019888;28;20046;-44
2021/07/30 06:05:32;;;;;;;0.50;0.50;;;24.20;60.40;;;;;;5027611;28;20052;-42
2021/07/30 06:07:58;;;;;;;0.63;0.55;;;24.20;60.50;;;;;;5021715;28;20081;-40
2021/07/30 06:10:25;;;;;;;0.70;0.70;;;24.20;60.40;;;;;;5020594;28;20038;-42
2021/07/30 06:12:50;;;;;;;0.55;0.50;;;24.20;60.30;;;;;;5020435;28;20017;-41
2021/07/30 06:15:16;;;;;;;0.70;0.70;;;24.20;60.50;;;;;;5031825;28;20030;-40
2021/07/30 06:17:43;;;;;;;0.70;0.63;;;24.10;60.50;;;;;;5045026;28;20033;-40
2021/07/30 06:20:09;;;;;;;0.52;0.47;;;24.20;61.40;;;;;;5015842;28;20025;-39
2021/07/30 06:22:38;;;;;;;0.52;0.52;;;24.20;60.40;;;;;;5029450;28;20033;-40
2021/07/30 06:25:07;;;;;;;0.68;0.68;;;24.20;60.50;;;;;;5029589;28;20132;-39
2021/07/30 06:27:34;;;;;;;0.85;0.52;;;24.10;60.80;;;;;;5030475;28;20022;-39
2021/07/30 06:30:03;;;;;;;0.68;0.60;;;24.10;60.20;;;;;;5031080;28;20533;-39
2021/07/30 06:32:29;;;;;;;1.35;0.90;;;24.00;60.50;;;;;;5009350;28;20116;-45
2021/07/30 06:34:54;;;;;;;0.90;0.80;;;24.00;60.00;;;;;;5023761;28;20108;-48
2021/07/30 06:37:20;;;;;;;2.45;0.85;;;24.00;60.10;;;;;;5020842;28;20033;-42
2021/07/30 06:39:46;;;;;;;1.52;0.90;;;23.90;60.00;;;;;;5021223;28;20496;-41
2021/07/30 06:42:11;;;;;;;8.38;0.98;;;23.90;60.00;;;;;;5016783;28;20024;-41
2021/07/30 06:44:37;;;;;;;1.05;0.95;;;23.90;59.70;;;;;;5028406;28;20034;-40
2021/07/30 06:47:03;;;;;;;1.25;1.10;;;23.90;59.00;;;;;;5020077;28;20076;-41
2021/07/30 06:49:28;;;;;;;2.25;1.30;;;23.90;58.90;;;;;;5021249;28;20026;-43
2021/07/30 06:51:54;;;;;;;1.52;0.93;;;23.90;58.90;;;;;;5021915;28;20140;-41
2021/07/30 06:54:20;;;;;;;1.92;1.33;;;23.90;58.70;;;;;;5023843;28;20022;-39
2021/07/30 06:56:45;;;;;;;5.45;1.92;;;24.00;57.80;;;;;;5022075;28;20022;-40
2021/07/30 06:59:11;;;;;;;8.52;2.03;;;23.40;57.40;;;;;;5024739;28;20512;-40
2021/07/30 07:01:37;;;;;;;5.93;1.90;;;22.80;58.50;;;;;;5022646;28;20056;-39
2021/07/30 07:04:03;;;;;;;5.75;2.60;;;22.70;57.80;;;;;;5023208;28;20484;-40
2021/07/30 07:06:28;;;;;;;5.05;1.92;;;22.70;57.50;;;;;;5017127;28;20049;-40
2021/07/30 07:08:54;;;;;;;7.65;2.05;;;22.10;59.30;;;;;;5020466;28;20036;-40
2021/07/30 07:11:20;;;;;;;4.82;1.95;;;22.00;59.80;;;;;;5003899;28;20026;-38
2021/07/30 07:13:46;;;;;;;4.85;1.75;;;21.70;60.70;;;;;;5009789;28;20021;-39
2021/07/30 07:16:11;;;;;;;6.10;1.83;;;21.70;61.10;;;;;;5022852;28;20067;-41
2021/07/30 07:18:37;;;;;;;4.47;1.77;;;21.80;60.50;;;;;;5025085;28;20067;-41
2021/07/30 07:21:02;;;;;;;2.85;1.55;;;21.70;60.70;;;;;;5024375;28;20052;-39
2021/07/30 07:23:28;;;;;;;6.95;1.80;;;21.90;60.30;;;;;;5022203;28;20059;-40
2021/07/30 07:25:54;;;;;;;3.95;1.75;;;21.90;60.00;;;;;;5024350;28;20041;-39
2021/07/30 07:28:19;;;;;;;5.20;2.03;;;22.00;59.70;;;;;;5020909;28;20026;-40
2021/07/30 07:30:45;;;;;;;3.38;1.90;;;21.90;60.30;;;;;;5015372;28;20036;-41
2021/07/30 07:33:10;;;;;;;4.47;1.65;;;21.70;60.80;;;;;;5016036;28;20026;-40
2021/07/30 07:35:36;;;;;;;3.53;1.70;;;21.80;60.90;;;;;;5021560;28;20044;-40
2021/07/30 07:38:05;;;;;;;3.13;1.70;;;21.60;61.30;;;;;;5017296;28;20373;-39
2021/07/30 07:40:31;;;;;;;3.53;1.80;;;21.60;61.30;;;;;;5020013;28;20140;-40
2021/07/30 07:42:57;;;;;;;5.90;2.47;;;21.80;60.90;;;;;;5016171;28;20092;-40
2021/07/30 07:45:23;;;;;;;4.32;1.70;;;21.80;60.60;;;;;;5015802;28;20064;-41
2021/07/30 07:47:49;;;;;;;6.18;2.20;;;21.60;60.90;;;;;;5021601;28;20044;-39
2021/07/30 07:50:14;;;;;;;3.03;1.80;;;21.50;61.50;;;;;;5020732;28;20029;-47
2021/07/30 07:52:40;;;;;;;2.72;1.60;;;21.50;61.10;;;;;;5019525;28;20382;-39
2021/07/30 07:55:08;;;;;;;4.00;1.70;;;21.70;61.30;;;;;;5017027;28;20048;-40
2021/07/30 07:57:33;;;;;;;3.92;1.58;;;22.00;60.60;;;;;;5014895;28;20038;-47
2021/07/30 07:59:59;;;;;;;5.75;1.83;;;21.80;61.20;;;;;;5021652;28;20307;-48
2021/07/30 08:02:25;;;;;;;4.57;1.90;;;21.90;60.70;;;;;;4669222;28;10000373;-46
2021/07/30 08:04:50;;;;;;;5.10;2.05;;;21.90;60.30;;;;;;4680426;28;9999902;-41
2021/07/30 08:07:17;;;;;;;3.90;1.48;;;22.10;59.60;;;;;;4998392;28;20033;-52
2021/07/30 08:09:44;;;;;;;5.65;2.20;;;22.30;59.50;;;;;;5013541;28;20029;-49
2021/07/30 08:12:10;;;;;;;2.70;1.33;;;22.60;58.70;;;;;;5017963;28;20100;-43
2021/07/30 08:14:37;;;;;;;2.50;1.90;;;22.70;58.30;;;;;;5020461;28;20491;-44
2021/07/30 08:17:02;;;;;;;9.10;1.80;;;22.70;58.00;;;;;;5016367;28;20030;-42
2021/07/30 08:19:31;;;;;;;3.08;1.67;;;22.70;58.60;;;;;;5019846;28;20040;-42
2021/07/30 08:21:56;;;;;;;5.18;2.08;;;22.80;58.10;;;;;;5015832;28;20026;-43
2021/07/30 08:24:22;;;;;;;3.47;1.63;;;22.80;58.20;;;;;;5018487;28;20021;-43
2021/07/30 08:26:47;;;;;;;2.58;1.40;;;22.80;58.40;;;;;;5013962;28;20041;-44
2021/07/30 08:29:15;;;;;;;3.00;1.50;;;22.80;58.40;;;;;;5020439;28;20062;-43
2021/07/30 08:31:41;;;;;;;3.90;1.65;;;22.80;58.30;;;;;;5016283;28;20030;-43
2021/07/30 08:34:06;;;;;;;4.03;1.60;;;22.90;58.00;;;;;;5016449;28;20083;-44
2021/07/30 08:36:32;;;;;;;3.70;1.95;;;22.90;58.00;;;;;;5018179;28;20034;-45
2021/07/30 08:38:58;;;;;;;1.67;1.35;;;23.00;58.70;;;;;;5015257;28;20447;-41
2021/07/30 08:41:23;;;;;;;2.17;1.52;;;23.20;57.90;;;;;;4996141;28;20068;-45
2021/07/30 08:43:53;;;;;;;2.00;1.27;;;23.20;57.60;;;;;;5016028;28;20022;-41
2021/07/30 08:46:23;;;;;;;2.78;1.33;;;23.30;57.50;;;;;;5016859;28;20057;-43
2021/07/30 08:48:49;;;;;;;2.85;1.40;;;23.30;57.60;;;;;;5016953;28;20088;-43
2021/07/30 08:51:15;;;;;;;3.08;1.65;;;23.30;57.70;;;;;;4998740;28;20120;-42
2021/07/30 08:53:43;;;;;;;2.17;1.33;;;23.30;57.70;;;;;;5000992;28;20022;-43
2021/07/30 08:56:08;;;;;;;1.98;1.45;;;23.30;57.70;;;;;;5018546;28;20032;-42
2021/07/30 08:58:34;;;;;;;6.40;1.30;;;23.40;57.80;;;;;;5019542;28;20416;-45
2021/07/30 09:01:00;;;;;;;2.03;1.50;;;23.40;57.90;;;;;;5016920;28;20029;-44
2021/07/30 09:03:44;;;;;;;3.33;1.48;;;23.40;57.90;;;;;;5022559;28;20512;-42
2021/07/30 09:06:23;;;;;;;2.58;1.17;;;23.60;57.70;;;;;;5022047;28;20058;-41
2021/07/30 09:09:01;;;;;;;3.05;1.40;;;23.60;57.90;;;;;;5019006;28;20439;-42
2021/07/30 09:11:31;;;;;;;3.45;1.73;;;23.50;57.90;;;;;;5020314;28;20026;-41
2021/07/30 09:13:58;;;;;;;2.30;1.50;;;23.50;57.90;;;;;;5015511;28;20042;-43
2021/07/30 09:16:23;;;;;;;2.47;1.33;;;23.60;57.80;;;;;;5024667;28;20471;-44
2021/07/30 09:18:51;;;;;;;2.20;1.65;;;23.50;57.40;;;;;;5021704;28;20021;-41
2021/07/30 09:21:24;;;;;;;1.83;1.30;;;23.50;57.50;;;;;;5020970;28;20030;-41
2021/07/30 09:24:09;;;;;;;3.20;1.50;;;23.50;57.50;;;;;;5007915;28;20037;-44
2021/07/30 09:26:48;;;;;;;3.53;1.40;;;23.50;57.40;;;;;;5024902;28;20062;-44
2021/07/30 09:29:24;;;;;;;2.42;1.50;;;23.60;57.00;;;;;;5019886;28;20034;-42
2021/07/30 09:31:54;;;;;;;2.38;1.40;;;23.60;56.90;;;;;;5021675;28;20049;-41
2021/07/30 09:34:26;;;;;;;2.25;1.30;;;23.60;57.00;;;;;;5020820;28;20028;-41
2021/07/30 09:36:56;;;;;;;2.03;1.27;;;23.60;56.80;;;;;;5014627;28;20036;-41
2021/07/30 09:39:45;;;;;;;2.60;1.70;;;23.60;56.70;;;;;;5020027;28;20033;-40
2021/07/30 09:42:13;;;;;;;3.10;1.40;;;23.70;56.70;;;;;;5005803;28;20060;-40
2021/07/30 09:44:50;;;;;;;2.10;1.40;;;23.70;56.50;;;;;;5024041;28;20037;-43
2021/07/30 09:47:24;;;;;;;2.70;1.58;;;23.70;56.50;;;;;;5000218;28;20038;-44
2021/07/30 09:50:00;;;;;;;1.80;1.38;;;23.70;56.50;;;;;;5019563;28;20048;-42
2021/07/30 09:52:26;;;;;;;2.20;1.40;;;23.80;56.60;;;;;;5016511;28;20033;-43
2021/07/30 09:54:52;;;;;;;2.20;1.15;;;23.80;56.10;;;;;;5016642;28;20025;-43
2021/07/30 09:57:22;;;;;;;2.15;1.20;;;23.80;56.20;;;;;;5013367;28;20065;-43
2021/07/30 09:59:48;;;;;;;2.70;1.27;;;23.80;56.30;;;;;;5018843;28;20029;-44
2021/07/30 10:02:18;;;;;;;1.33;1.23;;;23.80;56.30;;;;;;5018082;28;20038;-45
2021/07/30 10:04:49;;;;;;;3.50;1.23;;;23.80;56.30;;;;;;5022331;28;20563;-47
2021/07/30 10:07:16;;;;;;;2.67;1.30;;;23.90;56.40;;;;;;5020717;28;20041;-45
2021/07/30 10:09:43;;;;;;;6.43;4.75;;;23.80;56.30;;;;;;5011589;28;20025;-44
2021/07/30 10:12:09;;;;;;;20.70;16.75;;;23.60;56.40;;;;;;5019997;28;20079;-43
2021/07/30 10:14:34;;;;;;;33.05;25.30;;;23.80;56.10;;;;;;5012603;28;20033;-41
2021/07/30 10:17:01;;;;;;;40.03;29.30;;;23.80;55.90;;;;;;5020975;28;20052;-43
2021/07/30 10:19:29;;;;;;;32.15;22.95;;;23.90;55.70;;;;;;5025041;28;20112;-45
2021/07/30 10:21:55;;;;;;;31.27;20.75;;;23.80;55.90;;;;;;5019596;28;20044;-43
2021/07/30 10:24:20;;;;;;;33.30;23.17;;;23.90;55.90;;;;;;5009517;28;20017;-43
2021/07/30 10:26:46;;;;;;;30.35;19.98;;;23.90;55.80;;;;;;4991787;28;20045;-41
2021/07/30 10:29:14;;;;;;;20.25;15.15;;;23.90;55.70;;;;;;5020347;28;20759;-46
2021/07/30 10:31:49;;;;;;;22.40;15.63;;;23.90;56.10;;;;;;5016790;28;20038;-44
2021/07/30 10:34:38;;;;;;;27.05;18.77;;;23.80;56.10;;;;;;5021378;28;20025;-44
2021/07/30 10:37:04;;;;;;;27.05;18.95;;;23.90;56.20;;;;;;5018372;28;20026;-43
2021/07/30 10:39:30;;;;;;;29.27;19.58;;;23.90;56.10;;;;;;5001803;28;20087;-44
2021/07/30 10:42:11;;;;;;;30.33;21.15;;;23.80;56.20;;;;;;4995798;28;20091;-43
2021/07/30 10:45:17;;;;;;;29.27;21.00;;;23.90;55.80;;;;;;5021800;28;20039;-44
2021/07/30 10:47:43;;;;;;;22.25;16.00;;;24.00;56.00;;;;;;5013680;28;20183;-42
2021/07/30 10:50:47;;;;;;;26.80;16.02;;;24.00;56.10;;;;;;5013013;28;20615;-43
2021/07/30 10:53:32;;;;;;;20.90;15.95;;;24.00;56.30;;;;;;5019281;28;20109;-43
2021/07/30 10:55:59;;;;;;;23.95;16.45;;;24.00;56.50;;;;;;5017377;28;20060;-43
2021/07/30 10:58:44;;;;;;;20.50;14.20;;;23.90;56.60;;;;;;5020943;28;20032;-43
2021/07/30 11:01:17;;;;;;;21.25;15.18;;;23.80;56.40;;;;;;5012867;28;20121;-42
2021/07/30 11:03:51;;;;;;;18.98;13.55;;;23.80;56.70;;;;;;5018338;28;20076;-45
2021/07/30 11:06:21;;;;;;;17.42;12.95;;;23.80;56.40;;;;;;5014145;28;20116;-48
2021/07/30 11:11:52;;;;;;;14.00;8.68;;;23.90;56.40;;;;;;5013902;28;20049;-44
2021/07/30 11:14:46;;;;;;;14.73;9.82;;;23.90;56.40;;;;;;5016671;28;20499;-40
2021/07/30 11:17:12;;;;;;;10.05;9.00;;;23.90;56.70;;;;;;5001175;28;20054;-46
2021/07/30 11:19:39;;;;;;;10.60;8.73;;;24.00;56.40;;;;;;5014459;28;20068;-46
2021/07/30 11:22:06;;;;;;;8.90;7.90;;;24.00;57.00;;;;;;5017071;28;20034;-46
2021/07/30 11:24:45;;;;;;;8.43;7.43;;;24.10;56.10;;;;;;5019176;28;20030;-48
2021/07/30 11:27:13;;;;;;;9.52;7.05;;;24.10;56.00;;;;;;5017636;28;20751;-46
2021/07/30 11:29:45;;;;;;;8.77;7.40;;;24.10;56.20;;;;;;5018221;28;20530;-48
2021/07/30 11:32:15;;;;;;;8.82;7.05;;;24.10;56.10;;;;;;5019222;28;20087;-40
2021/07/30 11:34:50;;;;;;;7.40;6.70;;;24.10;56.00;;;;;;5000990;28;20029;-44
2021/07/30 11:37:17;;;;;;;6.43;5.68;;;24.10;56.50;;;;;;5021748;28;20510;-40
2021/07/30 11:39:47;;;;;;;5.35;4.85;;;24.10;55.70;;;;;;5017570;28;20033;-43
2021/07/30 11:42:34;;;;;;;6.22;5.63;;;24.10;55.50;;;;;;4999490;28;20030;-38
2021/07/30 11:45:07;;;;;;;7.05;4.53;;;24.10;56.20;;;;;;5020353;28;20037;-42
2021/07/30 11:47:34;;;;;;;9.77;5.03;;;24.00;56.30;;;;;;5020292;28;20073;-44
2021/07/30 11:50:07;;;;;;;5.43;4.95;;;24.00;56.20;;;;;;5012601;28;20100;-44
2021/07/30 11:52:32;;;;;;;4.43;4.03;;;24.00;56.30;;;;;;5016256;28;20119;-43
2021/07/30 11:55:14;;;;;;;4.07;3.67;;;24.00;56.40;;;;;;4996546;28;20068;-47
2021/07/30 11:57:40;;;;;;;4.82;4.43;;;24.00;57.30;;;;;;5019240;28;20055;-44
2021/07/30 12:00:06;;;;;;;5.95;4.35;;;24.00;56.50;;;;;;5009957;28;20116;-46
2021/07/30 12:02:32;;;;;;;4.30;3.47;;;24.00;56.50;;;;;;5022061;28;20606;-47
2021/07/30 12:04:58;;;;;;;4.75;4.35;;;24.20;55.90;;;;;;5022390;28;20046;-43
2021/07/30 12:07:36;;;;;;;4.72;4.30;;;24.20;56.30;;;;;;5020210;28;20137;-46
2021/07/30 12:10:04;;;;;;;4.63;3.03;;;24.20;56.10;;;;;;5004058;28;20067;-46
2021/07/30 12:12:32;;;;;;;4.05;3.75;;;24.10;55.60;;;;;;5016281;28;20036;-49
2021/07/30 12:14:58;;;;;;;3.90;3.60;;;24.20;55.70;;;;;;5003285;28;20435;-46
2021/07/30 12:17:23;;;;;;;5.05;3.60;;;24.20;55.80;;;;;;5007863;28;20025;-51
2021/07/30 12:20:16;;;;;;;3.95;2.53;;;24.20;55.60;;;;;;4995947;28;20068;-43
2021/07/30 12:22:43;;;;;;;3.13;2.35;;;24.20;55.70;;;;;;5015967;28;20037;-44
2021/07/30 12:25:16;;;;;;;3.47;3.17;;;24.20;55.70;;;;;;5021400;28;20033;-44
2021/07/30 12:27:41;;;;;;;3.78;3.47;;;24.20;56.10;;;;;;5013155;28;20444;-46
2021/07/30 12:30:07;;;;;;;3.03;2.00;;;24.20;56.40;;;;;;5025254;28;20054;-42
2021/07/30 12:32:38;;;;;;;1.83;1.73;;;24.10;55.40;;;;;;5005284;28;20037;-45
2021/07/30 12:35:11;;;;;;;2.55;2.15;;;24.10;56.40;;;;;;5017523;28;20065;-46
2021/07/30 12:37:37;;;;;;;2.45;2.25;;;24.20;56.10;;;;;;5016987;28;20036;-47
2021/07/30 12:40:09;;;;;;;2.85;2.20;;;24.20;56.40;;;;;;5004732;28;20073;-44
2021/07/30 12:42:35;;;;;;;2.47;2.28;;;24.20;55.90;;;;;;5023442;28;20033;-46
2021/07/30 12:45:05;;;;;;;2.40;2.17;;;24.20;56.20;;;;;;5018548;28;20022;-49
2021/07/30 12:47:32;;;;;;;3.17;1.88;;;24.20;56.20;;;;;;5006701;28;20033;-44
2021/07/30 12:49:58;;;;;;;2.13;1.90;;;24.20;56.10;;;;;;5015471;28;20057;-44